ADDS METAR Data INFO
IDs: Format: Raw Decoded Include TAF

Data at: 0219 UTC 18 Jan 2018

KTPH 180156Z AUTO 00000KT 10SM CLR 07/M02 A3032 RMK AO2 SLP268 T00721017
KTPH 180056Z AUTO 16005KT 10SM CLR 09/M02 A3032 RMK AO2 SLP263 T00941017
KTPH 172356Z AUTO 17003KT 10SM CLR 13/M02 A3032 RMK AO2 SLP254 T01281017 10139 20061 55005
KTPH 172256Z AUTO 17003KT 10SM CLR 13/M02 A3031 RMK AO2 SLP251 T01331022
KTPH 172156Z AUTO 00000KT 10SM CLR 13/M02 A3033 RMK AO2 SLP253 T01331017
KTPH 172056Z AUTO 34003KT 10SM CLR 12/M01 A3034 RMK AO2 SLP261 T01171011 55011
KTPH 171956Z AUTO 00000KT 10SM CLR 09/M01 A3033 RMK AO2 SLP261 T00891011
KTPH 171856Z AUTO 00000KT 10SM CLR 07/M01 A3036 RMK AO2 SLP276 T00671011
KTPH 171756Z AUTO 10003KT 10SM CLR 07/M01 A3037 RMK AO2 SLP280 T00671011 10067 21017 51009
KTPH 171656Z AUTO 04004KT 10SM CLR 06/M01 A3037 RMK AO2 SLP280 T00561011
KTPH 171556Z AUTO 04005KT 10SM CLR 01/M03 A3036 RMK AO2 SLP282 T00061028
KTPH 171456Z AUTO 01006KT 10SM CLR M02/M04 A3034 RMK AO2 SLP279 T10171039 53009
KTPH 171356Z AUTO 35006KT 10SM CLR M01/M03 A3033 RMK AO2 SLP272 T10111033
KTPH 171256Z AUTO 01006KT 10SM CLR M01/M04 A3031 RMK AO2 SLP257 T10111039
KTPH 171156Z AUTO 01007KT 10SM CLR 00/M03 A3031 RMK AO2 SLP250 T00001033 10033 20000 58000
KTPH 171056Z AUTO 36009KT 10SM CLR 01/M03 A3032 RMK AO2 SLP249 T00111028
KTPH 170956Z AUTO 01008KT 10SM CLR 02/M03 A3032 RMK AO2 SLP249 T00171028
KTPH 170856Z AUTO 01007KT 10SM CLR 01/M03 A3031 RMK AO2 SLP250 T00111028 50003
KTPH 170756Z AUTO 34007KT 10SM CLR 02/M03 A3032 RMK AO2 SLP253 T00171028 401390011
KTPH 170656Z AUTO 35007KT 10SM CLR 03/M02 A3031 RMK AO2 SLP259 T00281022
KTPH 170556Z AUTO 33005KT 10SM CLR 03/M02 A3030 RMK AO2 SLP254 T00281022 10139 20028 51011
KTPH 170456Z AUTO 01007KT 10SM CLR 04/M02 A3029 RMK AO2 SLP252 T00391017
KTPH 170356Z AUTO 06005KT 10SM CLR 06/M02 A3027 RMK AO2 SLP242 T00561017
KTPH 170256Z AUTO 00000KT 10SM CLR 07/M02 A3026 RMK AO2 SLP241 T00671017 53008
KTPH 170156Z AUTO 34005KT 10SM CLR 07/M01 A3026 RMK AO2 SLP239 T00721011
KTPH 170056Z AUTO 26005KT 10SM CLR 11/M02 A3024 RMK AO2 SLP225 T01061022
KTPH 162356Z AUTO 00000KT 10SM CLR 14/M03 A3023 RMK AO2 SLP216 T01391028 10139 20050 55000
KTPH 162256Z AUTO 29005KT 10SM CLR 14/M03 A3023 RMK AO2 SLP217 T01391028
KTPH 162156Z AUTO 14004KT 10SM CLR 13/M02 A3023 RMK AO2 SLP220 T01331017
KTPH 162056Z AUTO VRB03KT 10SM CLR 13/M02 A3023 RMK AO2 SLP220 T01281017 58017
KTPH 161956Z AUTO VRB03KT 10SM CLR 12/M02 A3027 RMK AO2 SLP232 T01171017
KTPH 161856Z AUTO 33003KT 10SM CLR 07/M01 A3028 RMK AO2 SLP246 T00721006
KTPH 161756Z AUTO 12006KT 10SM SCT095 07/00 A3029 RMK AO2 SLP249 T00670000 10072 20022 51015
KTPH 161656Z AUTO 35007KT 10SM OVC100 06/M01 A3028 RMK AO2 SLP249 T00561011
KTPH 161556Z AUTO 01008KT 10SM SCT100 05/M02 A3025 RMK AO2 SLP235 T00501017
KTPH 161456Z AUTO 02009KT 10SM OVC120 03/M02 A3024 RMK AO2 SLP232 T00331017 53004